sensor_id;sensor_type;location;lat;lon;timestamp;temperature;humidity
7574;DHT22;3828;48.922;9.116;2023-03-01T00:00:54;-1.30;99.90
7574;DHT22;3828;48.922;9.116;2023-03-01T00:10:42;-1.20;99.90
7574;DHT22;3828;48.922;9.116;2023-03-01T00:13:10;-1.30;99.90
7574;DHT22;3828;48.922;9.116;2023-03-01T00:15:38;-1.30;99.90
7574;DHT22;3828;48.922;9.116;2023-03-01T00:25:31;-1.50;99.90
7574;DHT22;3828;48.922;9.116;2023-03-01T00:30:26;-1.50;99.90
7574;DHT22;3828;48.922;9.116;2023-03-01T00:37:48;-1.50;99.90
7574;DHT22;3828;48.922;9.116;2023-03-01T00:40:18;-1.50;99.90
7574;DHT22;3828;48.922;9.116;2023-03-01T00:42:45;-1.70;99.90
7574;DHT22;3828;48.922;9.116;2023-03-01T00:45:12;-1.60;99.90
7574;DHT22;3828;48.922;9.116;2023-03-01T00:47:40;-1.60;99.90
7574;DHT22;3828;48.922;9.116;2023-03-01T00:50:08;-1.60;99.90
7574;DHT22;3828;48.922;9.116;2023-03-01T00:52:35;-1.60;99.90
7574;DHT22;3828;48.922;9.116;2023-03-01T00:55:03;-4.50;99.90
7574;DHT22;3828;48.922;9.116;2023-03-01T00:57:30;-1.70;99.90
7574;DHT22;3828;48.922;9.116;2023-03-01T01:02:25;-1.70;99.90
7574;DHT22;3828;48.922;9.116;2023-03-01T01:04:53;-1.70;99.90
7574;DHT22;3828;48.922;9.116;2023-03-01T01:07:20;-1.80;99.90
7574;DHT22;3828;48.922;9.116;2023-03-01T01:09:46;-1.70;99.90
7574;DHT22;3828;48.922;9.116;2023-03-01T01:12:13;-1.70;99.90
7574;DHT22;3828;48.922;9.116;2023-03-01T01:17:08;-1.60;99.90
7574;DHT22;3828;48.922;9.116;2023-03-01T01:19:35;-1.70;99.90
7574;DHT22;3828;48.922;9.116;2023-03-01T01:22:04;-1.80;99.90
7574;DHT22;3828;48.922;9.116;2023-03-01T01:24:30;-1.90;99.90
7574;DHT22;3828;48.922;9.116;2023-03-01T01:26:57;-1.90;99.90
7574;DHT22;3828;48.922;9.116;2023-03-01T01:29:24;-1.90;99.90
7574;DHT22;3828;48.922;9.116;2023-03-01T01:31:51;-2.00;99.90
7574;DHT22;3828;48.922;9.116;2023-03-01T01:34:19;-1.90;99.90
7574;DHT22;3828;48.922;9.116;2023-03-01T01:36:48;-1.90;99.90
7574;DHT22;3828;48.922;9.116;2023-03-01T01:39:16;-1.80;99.90
7574;DHT22;3828;48.922;9.116;2023-03-01T01:41:43;-1.90;99.90
7574;DHT22;3828;48.922;9.116;2023-03-01T01:44:14;-1.80;99.90
7574;DHT22;3828;48.922;9.116;2023-03-01T01:46:43;-1.80;99.90
7574;DHT22;3828;48.922;9.116;2023-03-01T01:49:19;-1.80;99.90
7574;DHT22;3828;48.922;9.116;2023-03-01T01:51:52;-2.00;99.90
7574;DHT22;3828;48.922;9.116;2023-03-01T01:54:23;-1.90;99.90
7574;DHT22;3828;48.922;9.116;2023-03-01T01:56:55;-2.00;99.90
7574;DHT22;3828;48.922;9.116;2023-03-01T01:59:23;-2.00;99.90
7574;DHT22;3828;48.922;9.116;2023-03-01T02:01:51;-2.10;99.90
7574;DHT22;3828;48.922;9.116;2023-03-01T02:04:18;-2.00;99.90
7574;DHT22;3828;48.922;9.116;2023-03-01T02:06:48;-2.00;99.90
7574;DHT22;3828;48.922;9.116;2023-03-01T02:09:16;-2.10;99.90
7574;DHT22;3828;48.922;9.116;2023-03-01T02:11:47;-2.10;99.90
7574;DHT22;3828;48.922;9.116;2023-03-01T02:14:14;-2.10;99.90
7574;DHT22;3828;48.922;9.116;2023-03-01T02:16:42;-2.10;99.90
7574;DHT22;3828;48.922;9.116;2023-03-01T02:19:16;-2.10;99.90
7574;DHT22;3828;48.922;9.116;2023-03-01T02:21:55;-2.10;99.90
7574;DHT22;3828;48.922;9.116;2023-03-01T02:24:33;-2.10;99.90
7574;DHT22;3828;48.922;9.116;2023-03-01T02:27:03;-2.20;99.90
7574;DHT22;3828;48.922;9.116;2023-03-01T02:29:32;-2.20;99.90
7574;DHT22;3828;48.922;9.116;2023-03-01T02:32:02;-2.20;99.90
7574;DHT22;3828;48.922;9.116;2023-03-01T02:34:28;-2.20;99.90
7574;DHT22;3828;48.922;9.116;2023-03-01T02:37:01;-2.20;99.90
7574;DHT22;3828;48.922;9.116;2023-03-01T02:39:33;-2.20;99.90
7574;DHT22;3828;48.922;9.116;2023-03-01T02:42:01;-2.10;99.90
7574;DHT22;3828;48.922;9.116;2023-03-01T02:44:29;-2.00;99.90
7574;DHT22;3828;48.922;9.116;2023-03-01T02:47:01;-1.90;99.90
7574;DHT22;3828;48.922;9.116;2023-03-01T02:49:31;-1.70;99.90
7574;DHT22;3828;48.922;9.116;2023-03-01T02:52:14;-1.60;99.90
7574;DHT22;3828;48.922;9.116;2023-03-01T02:54:47;-1.50;99.90
7574;DHT22;3828;48.922;9.116;2023-03-01T02:57:15;-1.50;99.90
7574;DHT22;3828;48.922;9.116;2023-03-01T02:59:42;-1.40;99.90
7574;DHT22;3828;48.922;9.116;2023-03-01T03:02:20;-1.40;99.90
7574;DHT22;3828;48.922;9.116;2023-03-01T03:05:02;-1.30;99.90
7574;DHT22;3828;48.922;9.116;2023-03-01T03:07:32;-1.20;99.90
7574;DHT22;3828;48.922;9.116;2023-03-01T03:09:58;-1.20;99.90
7574;DHT22;3828;48.922;9.116;2023-03-01T03:12:25;-1.10;99.90
7574;DHT22;3828;48.922;9.116;2023-03-01T03:17:20;-1.20;99.90
7574;DHT22;3828;48.922;9.116;2023-03-01T03:19:47;-1.10;99.90
7574;DHT22;3828;48.922;9.116;2023-03-01T03:24:41;-1.10;99.90
7574;DHT22;3828;48.922;9.116;2023-03-01T03:27:08;-1.00;99.90
7574;DHT22;3828;48.922;9.116;2023-03-01T03:29:35;-1.00;99.90
7574;DHT22;3828;48.922;9.116;2023-03-01T03:32:02;-1.10;99.90
7574;DHT22;3828;48.922;9.116;2023-03-01T03:34:30;2.10;99.90
7574;DHT22;3828;48.922;9.116;2023-03-01T03:36:57;-1.00;99.90
7574;DHT22;3828;48.922;9.116;2023-03-01T03:39:25;-1.10;99.90
7574;DHT22;3828;48.922;9.116;2023-03-01T03:41:53;-1.10;99.90
7574;DHT22;3828;48.922;9.116;2023-03-01T03:46:47;-1.00;99.90
7574;DHT22;3828;48.922;9.116;2023-03-01T03:51:42;-1.00;99.90
7574;DHT22;3828;48.922;9.116;2023-03-01T03:56:38;-1.00;99.90
7574;DHT22;3828;48.922;9.116;2023-03-01T03:59:05;-1.00;99.90
7574;DHT22;3828;48.922;9.116;2023-03-01T04:01:32;-1.00;99.90
7574;DHT22;3828;48.922;9.116;2023-03-01T04:03:58;-0.90;99.90
7574;DHT22;3828;48.922;9.116;2023-03-01T04:06:30;-0.90;99.90
7574;DHT22;3828;48.922;9.116;2023-03-01T04:08:58;-0.90;99.90
7574;DHT22;3828;48.922;9.116;2023-03-01T04:11:26;-0.90;99.90
7574;DHT22;3828;48.922;9.116;2023-03-01T04:13:54;-0.90;99.90
7574;DHT22;3828;48.922;9.116;2023-03-01T04:16:22;-0.90;99.90
7574;DHT22;3828;48.922;9.116;2023-03-01T04:18:49;-0.90;99.90
7574;DHT22;3828;48.922;9.116;2023-03-01T04:21:16;-1.00;99.90
7574;DHT22;3828;48.922;9.116;2023-03-01T04:23:45;-1.00;99.90
7574;DHT22;3828;48.922;9.116;2023-03-01T04:26:13;-0.90;99.90
7574;DHT22;3828;48.922;9.116;2023-03-01T04:28:42;-1.00;99.90
7574;DHT22;3828;48.922;9.116;2023-03-01T04:31:12;-0.90;99.90
7574;DHT22;3828;48.922;9.116;2023-03-01T04:33:40;-0.90;99.90
7574;DHT22;3828;48.922;9.116;2023-03-01T04:36:08;-0.90;99.90
7574;DHT22;3828;48.922;9.116;2023-03-01T04:38:35;-0.80;99.90
7574;DHT22;3828;48.922;9.116;2023-03-01T04:41:04;-0.90;99.90
7574;DHT22;3828;48.922;9.116;2023-03-01T04:43:32;-0.80;99.90
7574;DHT22;3828;48.922;9.116;2023-03-01T04:46:04;-0.80;99.90
7574;DHT22;3828;48.922;9.116;2023-03-01T04:50:59;-0.80;99.90
7574;DHT22;3828;48.922;9.116;2023-03-01T04:53:27;-0.70;99.90
7574;DHT22;3828;48.922;9.116;2023-03-01T04:55:55;-0.70;99.90
7574;DHT22;3828;48.922;9.116;2023-03-01T05:00:51;-0.80;99.90
7574;DHT22;3828;48.922;9.116;2023-03-01T05:03:18;-0.80;99.90
7574;DHT22;3828;48.922;9.116;2023-03-01T05:05:46;-0.90;99.90
7574;DHT22;3828;48.922;9.116;2023-03-01T05:08:14;-0.90;99.90
7574;DHT22;3828;48.922;9.116;2023-03-01T05:10:44;-0.90;99.90
7574;DHT22;3828;48.922;9.116;2023-03-01T05:13:12;-0.90;99.90
7574;DHT22;3828;48.922;9.116;2023-03-01T05:18:09;-1.00;99.90
7574;DHT22;3828;48.922;9.116;2023-03-01T05:20:37;-0.90;99.90
7574;DHT22;3828;48.922;9.116;2023-03-01T05:23:04;-0.90;99.90
7574;DHT22;3828;48.922;9.116;2023-03-01T05:25:33;-1.00;99.90
7574;DHT22;3828;48.922;9.116;2023-03-01T05:28:00;-1.00;99.90
7574;DHT22;3828;48.922;9.116;2023-03-01T05:30:30;-1.10;99.90
7574;DHT22;3828;48.922;9.116;2023-03-01T05:32:58;-1.10;99.90
7574;DHT22;3828;48.922;9.116;2023-03-01T05:35:27;-1.20;99.90
7574;DHT22;3828;48.922;9.116;2023-03-01T05:40:23;-1.30;99.90
7574;DHT22;3828;48.922;9.116;2023-03-01T05:42:52;-1.40;99.90
7574;DHT22;3828;48.922;9.116;2023-03-01T05:45:20;-1.40;99.90
7574;DHT22;3828;48.922;9.116;2023-03-01T05:47:49;-1.50;99.90
7574;DHT22;3828;48.922;9.116;2023-03-01T05:50:18;-0.40;99.90
7574;DHT22;3828;48.922;9.116;2023-03-01T05:52:47;-1.60;99.90
7574;DHT22;3828;48.922;9.116;2023-03-01T05:55:20;-1.60;99.90
7574;DHT22;3828;48.922;9.116;2023-03-01T05:57:48;-1.60;99.90
7574;DHT22;3828;48.922;9.116;2023-03-01T06:00:19;-1.60;99.90
7574;DHT22;3828;48.922;9.116;2023-03-01T06:05:15;-1.60;99.90
7574;DHT22;3828;48.922;9.116;2023-03-01T06:07:41;-1.50;99.90
7574;DHT22;3828;48.922;9.116;2023-03-01T06:10:12;-1.40;99.90
7574;DHT22;3828;48.922;9.116;2023-03-01T06:12:40;-1.40;99.90
7574;DHT22;3828;48.922;9.116;2023-03-01T06:15:08;-1.30;99.90
7574;DHT22;3828;48.922;9.116;2023-03-01T06:17:37;-1.30;99.90
7574;DHT22;3828;48.922;9.116;2023-03-01T06:20:06;-1.30;99.90
7574;DHT22;3828;48.922;9.116;2023-03-01T06:22:34;-1.20;99.90
7574;DHT22;3828;48.922;9.116;2023-03-01T06:25:00;-1.20;99.90
7574;DHT22;3828;48.922;9.116;2023-03-01T06:27:29;-1.10;99.90
7574;DHT22;3828;48.922;9.116;2023-03-01T06:29:55;-1.10;99.90
7574;DHT22;3828;48.922;9.116;2023-03-01T06:32:22;-1.00;99.90
7574;DHT22;3828;48.922;9.116;2023-03-01T06:34:49;-1.00;99.90
7574;DHT22;3828;48.922;9.116;2023-03-01T06:37:16;-1.00;99.90
7574;DHT22;3828;48.922;9.116;2023-03-01T06:39:43;-0.90;99.90
7574;DHT22;3828;48.922;9.116;2023-03-01T06:42:10;-0.90;99.90
7574;DHT22;3828;48.922;9.116;2023-03-01T06:44:38;-0.70;99.90
7574;DHT22;3828;48.922;9.116;2023-03-01T06:47:05;-0.60;99.90
7574;DHT22;3828;48.922;9.116;2023-03-01T06:49:32;-0.60;99.90
7574;DHT22;3828;48.922;9.116;2023-03-01T06:51:58;-0.60;99.90
7574;DHT22;3828;48.922;9.116;2023-03-01T06:54:25;-0.50;99.90
7574;DHT22;3828;48.922;9.116;2023-03-01T06:56:53;-0.50;99.90
7574;DHT22;3828;48.922;9.116;2023-03-01T06:59:20;-0.40;99.90
7574;DHT22;3828;48.922;9.116;2023-03-01T07:01:48;-0.30;99.90
7574;DHT22;3828;48.922;9.116;2023-03-01T07:04:15;-0.20;99.90
7574;DHT22;3828;48.922;9.116;2023-03-01T07:06:41;-0.10;99.90
7574;DHT22;3828;48.922;9.116;2023-03-01T07:09:08;0.00;99.90
7574;DHT22;3828;48.922;9.116;2023-03-01T07:11:40;0.10;99.90
7574;DHT22;3828;48.922;9.116;2023-03-01T07:14:10;0.20;99.90
7574;DHT22;3828;48.922;9.116;2023-03-01T07:16:40;0.30;99.90
7574;DHT22;3828;48.922;9.116;2023-03-01T07:19:14;0.50;99.90
7574;DHT22;3828;48.922;9.116;2023-03-01T07:21:42;0.60;99.90
7574;DHT22;3828;48.922;9.116;2023-03-01T07:24:15;0.70;99.90
7574;DHT22;3828;48.922;9.116;2023-03-01T07:26:48;0.80;99.90
7574;DHT22;3828;48.922;9.116;2023-03-01T07:29:21;0.90;99.90
7574;DHT22;3828;48.922;9.116;2023-03-01T07:31:50;2.70;99.90
7574;DHT22;3828;48.922;9.116;2023-03-01T07:34:22;1.30;99.90
7574;DHT22;3828;48.922;9.116;2023-03-01T07:36:55;1.60;99.90
7574;DHT22;3828;48.922;9.116;2023-03-01T07:39:28;1.90;99.90
7574;DHT22;3828;48.922;9.116;2023-03-01T07:42:00;2.00;99.90
7574;DHT22;3828;48.922;9.116;2023-03-01T07:44:31;2.00;99.90
7574;DHT22;3828;48.922;9.116;2023-03-01T07:47:05;2.20;99.90
7574;DHT22;3828;48.922;9.116;2023-03-01T07:49:37;2.40;99.90
7574;DHT22;3828;48.922;9.116;2023-03-01T07:54:41;3.20;99.90
7574;DHT22;3828;48.922;9.116;2023-03-01T07:57:12;3.50;99.90
7574;DHT22;3828;48.922;9.116;2023-03-01T07:59:42;4.10;99.90
7574;DHT22;3828;48.922;9.116;2023-03-01T08:02:13;6.90;99.90
7574;DHT22;3828;48.922;9.116;2023-03-01T08:04:47;4.40;99.90
7574;DHT22;3828;48.922;9.116;2023-03-01T08:07:23;4.80;99.90
7574;DHT22;3828;48.922;9.116;2023-03-01T08:09:53;4.50;99.90
7574;DHT22;3828;48.922;9.116;2023-03-01T08:12:24;5.00;99.90
7574;DHT22;3828;48.922;9.116;2023-03-01T08:14:54;5.40;99.90
7574;DHT22;3828;48.922;9.116;2023-03-01T08:17:24;5.80;99.90
7574;DHT22;3828;48.922;9.116;2023-03-01T08:19:53;6.10;99.90
7574;DHT22;3828;48.922;9.116;2023-03-01T08:22:22;6.30;99.90
7574;DHT22;3828;48.922;9.116;2023-03-01T08:24:54;6.50;99.90
7574;DHT22;3828;48.922;9.116;2023-03-01T08:27:28;6.50;99.90
7574;DHT22;3828;48.922;9.116;2023-03-01T08:29:56;6.70;99.90
7574;DHT22;3828;48.922;9.116;2023-03-01T08:32:36;6.60;99.90
7574;DHT22;3828;48.922;9.116;2023-03-01T08:35:06;6.60;99.90
7574;DHT22;3828;48.922;9.116;2023-03-01T08:37:36;6.90;99.90
7574;DHT22;3828;48.922;9.116;2023-03-01T08:40:11;7.30;99.90
7574;DHT22;3828;48.922;9.116;2023-03-01T08:42:45;7.30;99.90
7574;DHT22;3828;48.922;9.116;2023-03-01T08:45:16;7.50;99.90
7574;DHT22;3828;48.922;9.116;2023-03-01T08:47:50;7.70;99.90
7574;DHT22;3828;48.922;9.116;2023-03-01T08:50:20;8.00;99.90
7574;DHT22;3828;48.922;9.116;2023-03-01T08:52:50;8.30;99.90
7574;DHT22;3828;48.922;9.116;2023-03-01T08:55:20;8.60;99.90
7574;DHT22;3828;48.922;9.116;2023-03-01T08:57:48;8.20;99.90
7574;DHT22;3828;48.922;9.116;2023-03-01T09:00:29;8.60;99.90
7574;DHT22;3828;48.922;9.116;2023-03-01T09:05:31;9.40;99.90
7574;DHT22;3828;48.922;9.116;2023-03-01T09:10:25;9.00;99.90
7574;DHT22;3828;48.922;9.116;2023-03-01T09:12:52;8.80;99.90
7574;DHT22;3828;48.922;9.116;2023-03-01T09:22:41;8.80;99.90
7574;DHT22;3828;48.922;9.116;2023-03-01T09:39:58;8.20;99.90
7574;DHT22;3828;48.922;9.116;2023-03-01T09:44:57;8.80;99.90
7574;DHT22;3828;48.922;9.116;2023-03-01T09:47:28;8.80;99.90
7574;DHT22;3828;48.922;9.116;2023-03-01T09:50:02;8.80;99.90
7574;DHT22;3828;48.922;9.116;2023-03-01T09:52:36;9.10;99.90
7574;DHT22;3828;48.922;9.116;2023-03-01T09:55:11;9.70;99.90
7574;DHT22;3828;48.922;9.116;2023-03-01T09:57:47;10.30;99.90
7574;DHT22;3828;48.922;9.116;2023-03-01T10:00:26;10.90;99.90
7574;DHT22;3828;48.922;9.116;2023-03-01T10:02:58;11.30;99.90
7574;DHT22;3828;48.922;9.116;2023-03-01T10:05:43;11.10;99.90
7574;DHT22;3828;48.922;9.116;2023-03-01T10:08:27;11.00;99.90
7574;DHT22;3828;48.922;9.116;2023-03-01T10:10:58;11.20;99.90
7574;DHT22;3828;48.922;9.116;2023-03-01T10:13:30;11.60;99.90
7574;DHT22;3828;48.922;9.116;2023-03-01T10:16:05;11.40;99.90
7574;DHT22;3828;48.922;9.116;2023-03-01T10:18:37;11.30;99.90
7574;DHT22;3828;48.922;9.116;2023-03-01T10:21:13;11.20;99.90
7574;DHT22;3828;48.922;9.116;2023-03-01T10:23:40;11.10;99.90
7574;DHT22;3828;48.922;9.116;2023-03-01T10:29:02;12.20;99.90
7574;DHT22;3828;48.922;9.116;2023-03-01T10:31:38;12.30;99.90
7574;DHT22;3828;48.922;9.116;2023-03-01T10:34:12;12.60;99.90
7574;DHT22;3828;48.922;9.116;2023-03-01T10:36:40;12.90;99.70
7574;DHT22;3828;48.922;9.116;2023-03-01T10:39:14;13.50;99.00
7574;DHT22;3828;48.922;9.116;2023-03-01T10:42:00;14.00;99.60
7574;DHT22;3828;48.922;9.116;2023-03-01T10:44:43;13.70;96.40
7574;DHT22;3828;48.922;9.116;2023-03-01T10:47:17;14.10;99.00
7574;DHT22;3828;48.922;9.116;2023-03-01T10:49:53;14.10;96.90
7574;DHT22;3828;48.922;9.116;2023-03-01T10:52:26;14.20;96.00
7574;DHT22;3828;48.922;9.116;2023-03-01T10:54:55;14.40;97.40
7574;DHT22;3828;48.922;9.116;2023-03-01T10:57:31;14.40;95.60
7574;DHT22;3828;48.922;9.116;2023-03-01T11:00:15;14.10;95.30
7574;DHT22;3828;48.922;9.116;2023-03-01T11:05:18;13.30;94.60
7574;DHT22;3828;48.922;9.116;2023-03-01T11:07:49;14.80;93.90
7574;DHT22;3828;48.922;9.116;2023-03-01T11:10:18;14.80;95.20
7574;DHT22;3828;48.922;9.116;2023-03-01T11:12:47;15.40;94.80
7574;DHT22;3828;48.922;9.116;2023-03-01T11:15:23;15.40;92.50
7574;DHT22;3828;48.922;9.116;2023-03-01T11:20:25;15.30;93.70
7574;DHT22;3828;48.922;9.116;2023-03-01T11:22:54;16.00;92.70
7574;DHT22;3828;48.922;9.116;2023-03-01T11:25:25;16.40;91.40
7574;DHT22;3828;48.922;9.116;2023-03-01T11:27:54;16.10;90.80
7574;DHT22;3828;48.922;9.116;2023-03-01T11:30:26;18.30;92.80
7574;DHT22;3828;48.922;9.116;2023-03-01T11:33:03;15.80;90.50
7574;DHT22;3828;48.922;9.116;2023-03-01T11:35:32;15.50;92.00
7574;DHT22;3828;48.922;9.116;2023-03-01T11:38:09;15.70;91.90
7574;DHT22;3828;48.922;9.116;2023-03-01T11:40:44;15.70;90.80
7574;DHT22;3828;48.922;9.116;2023-03-01T11:43:20;16.30;91.00
7574;DHT22;3828;48.922;9.116;2023-03-01T11:46:08;16.10;91.10
7574;DHT22;3828;48.922;9.116;2023-03-01T11:48:49;15.80;91.40
7574;DHT22;3828;48.922;9.116;2023-03-01T11:51:24;15.90;90.40
7574;DHT22;3828;48.922;9.116;2023-03-01T11:54:04;16.40;88.90
7574;DHT22;3828;48.922;9.116;2023-03-01T11:56:37;15.70;90.30
7574;DHT22;3828;48.922;9.116;2023-03-01T12:02:27;16.20;88.20
7574;DHT22;3828;48.922;9.116;2023-03-01T12:05:11;15.70;90.00
7574;DHT22;3828;48.922;9.116;2023-03-01T12:07:46;15.90;90.80
7574;DHT22;3828;48.922;9.116;2023-03-01T12:10:22;16.20;89.80
7574;DHT22;3828;48.922;9.116;2023-03-01T12:13:09;16.00;89.90
7574;DHT22;3828;48.922;9.116;2023-03-01T12:15:50;16.00;90.60
7574;DHT22;3828;48.922;9.116;2023-03-01T12:21:28;16.70;90.40
7574;DHT22;3828;48.922;9.116;2023-03-01T12:24:31;16.90;87.30
7574;DHT22;3828;48.922;9.116;2023-03-01T12:27:19;16.40;87.60
7574;DHT22;3828;48.922;9.116;2023-03-01T12:29:52;16.80;87.30
7574;DHT22;3828;48.922;9.116;2023-03-01T12:32:36;16.40;87.30
7574;DHT22;3828;48.922;9.116;2023-03-01T12:35:20;17.10;86.30
7574;DHT22;3828;48.922;9.116;2023-03-01T12:37:54;17.50;84.20
7574;DHT22;3828;48.922;9.116;2023-03-01T12:40:38;17.40;86.80
7574;DHT22;3828;48.922;9.116;2023-03-01T12:43:18;17.20;84.50
7574;DHT22;3828;48.922;9.116;2023-03-01T12:45:59;16.50;85.80
7574;DHT22;3828;48.922;9.116;2023-03-01T12:48:40;16.10;88.60
7574;DHT22;3828;48.922;9.116;2023-03-01T12:51:13;16.60;87.80
7574;DHT22;3828;48.922;9.116;2023-03-01T12:53:44;12.80;83.10
7574;DHT22;3828;48.922;9.116;2023-03-01T12:56:15;16.30;86.30
7574;DHT22;3828;48.922;9.116;2023-03-01T12:58:51;15.10;86.80
7574;DHT22;3828;48.922;9.116;2023-03-01T13:01:31;15.40;88.30
7574;DHT22;3828;48.922;9.116;2023-03-01T13:04:30;15.80;86.60
7574;DHT22;3828;48.922;9.116;2023-03-01T13:07:14;15.00;89.60
7574;DHT22;3828;48.922;9.116;2023-03-01T13:09:49;14.80;89.00
7574;DHT22;3828;48.922;9.116;2023-03-01T13:12:44;14.10;90.40
7574;DHT22;3828;48.922;9.116;2023-03-01T13:15:35;14.10;90.80
7574;DHT22;3828;48.922;9.116;2023-03-01T13:18:04;14.30;91.20
7574;DHT22;3828;48.922;9.116;2023-03-01T13:20:44;14.70;90.00
7574;DHT22;3828;48.922;9.116;2023-03-01T13:23:23;14.90;90.00
7574;DHT22;3828;48.922;9.116;2023-03-01T13:26:11;15.10;90.60
7574;DHT22;3828;48.922;9.116;2023-03-01T13:28:41;15.70;89.90
7574;DHT22;3828;48.922;9.116;2023-03-01T13:31:56;15.60;89.00
7574;DHT22;3828;48.922;9.116;2023-03-01T13:34:47;15.20;89.80
7574;DHT22;3828;48.922;9.116;2023-03-01T13:37:31;15.20;91.20
7574;DHT22;3828;48.922;9.116;2023-03-01T13:40:00;15.00;90.00
7574;DHT22;3828;48.922;9.116;2023-03-01T13:42:37;14.70;90.00
7574;DHT22;3828;48.922;9.116;2023-03-01T13:47:52;15.90;90.00
7574;DHT22;3828;48.922;9.116;2023-03-01T13:50:23;16.50;88.80
7574;DHT22;3828;48.922;9.116;2023-03-01T13:52:58;16.40;87.90
7574;DHT22;3828;48.922;9.116;2023-03-01T13:55:32;16.60;88.40
7574;DHT22;3828;48.922;9.116;2023-03-01T14:01:04;16.40;87.70
7574;DHT22;3828;48.922;9.116;2023-03-01T14:03:33;15.90;88.30
7574;DHT22;3828;48.922;9.116;2023-03-01T14:06:03;16.10;88.20
7574;DHT22;3828;48.922;9.116;2023-03-01T14:08:34;16.20;87.60
7574;DHT22;3828;48.922;9.116;2023-03-01T14:14:09;16.30;88.50
7574;DHT22;3828;48.922;9.116;2023-03-01T14:16:45;16.30;87.60
7574;DHT22;3828;48.922;9.116;2023-03-01T14:19:16;16.00;88.30
7574;DHT22;3828;48.922;9.116;2023-03-01T14:24:20;15.60;88.50
7574;DHT22;3828;48.922;9.116;2023-03-01T14:26:49;15.80;88.30
7574;DHT22;3828;48.922;9.116;2023-03-01T14:29:27;15.10;89.60
7574;DHT22;3828;48.922;9.116;2023-03-01T14:34:22;15.20;89.70
7574;DHT22;3828;48.922;9.116;2023-03-01T14:39:19;14.90;89.90
7574;DHT22;3828;48.922;9.116;2023-03-01T14:44:17;15.30;90.20
7574;DHT22;3828;48.922;9.116;2023-03-01T14:46:45;15.90;90.00
7574;DHT22;3828;48.922;9.116;2023-03-01T14:49:14;16.10;89.40
7574;DHT22;3828;48.922;9.116;2023-03-01T14:51:45;15.80;87.90
7574;DHT22;3828;48.922;9.116;2023-03-01T14:54:22;15.40;89.40
7574;DHT22;3828;48.922;9.116;2023-03-01T14:56:51;15.40;89.60
7574;DHT22;3828;48.922;9.116;2023-03-01T14:59:21;15.60;89.70
7574;DHT22;3828;48.922;9.116;2023-03-01T15:09:14;15.00;88.80
7574;DHT22;3828;48.922;9.116;2023-03-01T15:11:44;15.20;88.90
7574;DHT22;3828;48.922;9.116;2023-03-01T15:14:27;15.10;90.30
7574;DHT22;3828;48.922;9.116;2023-03-01T15:16:55;15.40;89.40
7574;DHT22;3828;48.922;9.116;2023-03-01T15:19:24;15.30;89.10
7574;DHT22;3828;48.922;9.116;2023-03-01T15:24:24;14.90;89.90
7574;DHT22;3828;48.922;9.116;2023-03-01T15:26:57;15.00;89.50
7574;DHT22;3828;48.922;9.116;2023-03-01T15:29:29;14.70;89.30
7574;DHT22;3828;48.922;9.116;2023-03-01T15:32:00;14.60;90.00
7574;DHT22;3828;48.922;9.116;2023-03-01T15:34:30;14.80;90.30
7574;DHT22;3828;48.922;9.116;2023-03-01T15:36:58;15.10;90.10
7574;DHT22;3828;48.922;9.116;2023-03-01T15:39:38;15.00;90.00
7574;DHT22;3828;48.922;9.116;2023-03-01T15:42:09;14.80;88.90
7574;DHT22;3828;48.922;9.116;2023-03-01T15:44:38;14.80;89.40
7574;DHT22;3828;48.922;9.116;2023-03-01T15:47:25;14.60;89.60
7574;DHT22;3828;48.922;9.116;2023-03-01T15:49:53;12.60;90.00
7574;DHT22;3828;48.922;9.116;2023-03-01T15:52:24;13.40;90.40
7574;DHT22;3828;48.922;9.116;2023-03-01T15:54:56;13.40;90.60
7574;DHT22;3828;48.922;9.116;2023-03-01T15:57:27;13.40;90.60
7574;DHT22;3828;48.922;9.116;2023-03-01T16:12:13;12.00;91.70
7574;DHT22;3828;48.922;9.116;2023-03-01T16:14:44;12.00;91.80
7574;DHT22;3828;48.922;9.116;2023-03-01T16:31:59;10.20;93.80
7574;DHT22;3828;48.922;9.116;2023-03-01T16:49:14;7.50;99.90
7574;DHT22;3828;48.922;9.116;2023-03-01T17:06:31;6.60;99.90
7574;DHT22;3828;48.922;9.116;2023-03-01T17:16:20;6.30;99.90
7574;DHT22;3828;48.922;9.116;2023-03-01T17:21:15;6.10;99.90
7574;DHT22;3828;48.922;9.116;2023-03-01T17:23:45;6.10;99.90
7574;DHT22;3828;48.922;9.116;2023-03-01T17:40:59;5.80;99.90
7574;DHT22;3828;48.922;9.116;2023-03-01T17:53:15;5.60;99.90
7574;DHT22;3828;48.922;9.116;2023-03-01T17:55:45;5.50;99.90
7574;DHT22;3828;48.922;9.116;2023-03-01T17:58:16;5.50;99.90
7574;DHT22;3828;48.922;9.116;2023-03-01T18:00:48;5.30;99.90
7574;DHT22;3828;48.922;9.116;2023-03-01T18:13:04;5.00;99.90
7574;DHT22;3828;48.922;9.116;2023-03-01T18:15:33;5.00;99.90
7574;DHT22;3828;48.922;9.116;2023-03-01T18:22:55;5.00;99.90
7574;DHT22;3828;48.922;9.116;2023-03-01T18:32:44;4.30;99.90
7574;DHT22;3828;48.922;9.116;2023-03-01T18:40:07;4.00;99.90
7574;DHT22;3828;48.922;9.116;2023-03-01T18:42:34;3.90;99.90
7574;DHT22;3828;48.922;9.116;2023-03-01T18:45:01;3.80;99.90
7574;DHT22;3828;48.922;9.116;2023-03-01T18:49:56;3.70;99.90
7574;DHT22;3828;48.922;9.116;2023-03-01T19:07:08;3.40;99.90
7574;DHT22;3828;48.922;9.116;2023-03-01T19:09:38;3.30;99.90
7574;DHT22;3828;48.922;9.116;2023-03-01T19:12:06;3.30;99.90
7574;DHT22;3828;48.922;9.116;2023-03-01T19:19:27;3.20;99.90
7574;DHT22;3828;48.922;9.116;2023-03-01T19:24:22;3.20;99.90
7574;DHT22;3828;48.922;9.116;2023-03-01T19:41:34;3.00;99.90
7574;DHT22;3828;48.922;9.116;2023-03-01T19:46:30;2.90;99.90
7574;DHT22;3828;48.922;9.116;2023-03-01T19:58:48;2.70;99.90
7574;DHT22;3828;48.922;9.116;2023-03-01T20:01:19;2.70;99.90
7574;DHT22;3828;48.922;9.116;2023-03-01T20:03:46;3.30;99.90
7574;DHT22;3828;48.922;9.116;2023-03-01T20:06:16;2.70;99.90
7574;DHT22;3828;48.922;9.116;2023-03-01T20:08:43;2.60;99.90
7574;DHT22;3828;48.922;9.116;2023-03-01T20:11:12;2.60;99.90
7574;DHT22;3828;48.922;9.116;2023-03-01T20:16:08;2.40;99.90
7574;DHT22;3828;48.922;9.116;2023-03-01T20:21:02;2.30;99.90
7574;DHT22;3828;48.922;9.116;2023-03-01T20:23:31;2.20;99.90
7574;DHT22;3828;48.922;9.116;2023-03-01T20:26:02;2.20;99.90
7574;DHT22;3828;48.922;9.116;2023-03-01T20:31:02;2.20;99.90
7574;DHT22;3828;48.922;9.116;2023-03-01T20:33:31;2.30;99.90
7574;DHT22;3828;48.922;9.116;2023-03-01T20:40:57;2.40;99.90
7574;DHT22;3828;48.922;9.116;2023-03-01T20:48:18;2.50;99.90
7574;DHT22;3828;48.922;9.116;2023-03-01T20:50:46;2.50;99.90
7574;DHT22;3828;48.922;9.116;2023-03-01T21:03:02;2.50;99.90
7574;DHT22;3828;48.922;9.116;2023-03-01T21:07:58;2.80;99.90
7574;DHT22;3828;48.922;9.116;2023-03-01T21:17:48;3.00;99.90
7574;DHT22;3828;48.922;9.116;2023-03-01T21:20:16;3.00;99.90
7574;DHT22;3828;48.922;9.116;2023-03-01T21:22:44;2.90;99.90
7574;DHT22;3828;48.922;9.116;2023-03-01T21:25:13;2.80;99.90
7574;DHT22;3828;48.922;9.116;2023-03-01T21:30:07;2.80;99.90
7574;DHT22;3828;48.922;9.116;2023-03-01T21:37:29;2.60;99.90
7574;DHT22;3828;48.922;9.116;2023-03-01T21:42:24;2.50;99.90
7574;DHT22;3828;48.922;9.116;2023-03-01T21:44:51;2.40;99.90
7574;DHT22;3828;48.922;9.116;2023-03-01T21:49:45;2.30;99.90
7574;DHT22;3828;48.922;9.116;2023-03-01T21:54:41;2.20;99.90
7574;DHT22;3828;48.922;9.116;2023-03-01T21:59:37;2.00;99.90
7574;DHT22;3828;48.922;9.116;2023-03-01T22:09:25;1.70;99.90
7574;DHT22;3828;48.922;9.116;2023-03-01T22:11:53;1.60;99.90
7574;DHT22;3828;48.922;9.116;2023-03-01T22:14:23;1.60;99.90
7574;DHT22;3828;48.922;9.116;2023-03-01T22:16:52;1.50;99.90
7574;DHT22;3828;48.922;9.116;2023-03-01T22:19:20;1.50;99.90
7574;DHT22;3828;48.922;9.116;2023-03-01T22:21:49;1.40;99.90
7574;DHT22;3828;48.922;9.116;2023-03-01T22:24:18;1.30;99.90
7574;DHT22;3828;48.922;9.116;2023-03-01T22:26:46;1.30;99.90
7574;DHT22;3828;48.922;9.116;2023-03-01T22:29:17;1.20;99.90